Time;durP1;ratioP1;P1;durP2;ratioP2;P2;SDS_P1;SDS_P2;PMS_P1;PMS_P2;Temp;Humidity;BMP_temperature;BMP_pressure;BME280_temperature;BME280_humidity;BME280_pressure;Samples;Min_cycle;Max_cycle;Signal;HPM_P1;HPM_P2
2022/04/27 00:00:06;;;;;;;4.60;4.20;;;9.40;99.90;;;;;;5016066;28;20187;-86
2022/04/27 00:02:37;;;;;;;4.30;3.90;;;9.40;99.90;;;;;;5033681;28;20167;-85
2022/04/27 00:05:04;;;;;;;4.30;3.90;;;9.40;99.90;;;;;;4999290;28;20221;-86
2022/04/27 00:07:29;;;;;;;4.33;3.93;;;9.40;99.90;;;;;;5015909;28;20182;-86
2022/04/27 00:09:55;;;;;;;5.67;4.67;;;9.30;99.90;;;;;;5015572;28;20175;-86
2022/04/27 00:12:21;;;;;;;4.90;4.40;;;9.30;99.90;;;;;;5015448;28;20224;-86
2022/04/27 00:14:47;;;;;;;5.17;4.77;;;9.30;99.90;;;;;;5015914;28;20280;-85
2022/04/27 00:17:13;;;;;;;4.90;4.43;;;9.30;99.90;;;;;;5015622;28;20213;-86
2022/04/27 00:19:39;;;;;;;6.20;4.40;;;9.30;99.90;;;;;;5015294;28;20256;-86
2022/04/27 00:22:05;;;;;;;5.37;4.43;;;9.30;99.90;;;;;;5015806;28;20541;-86
2022/04/27 00:24:31;;;;;;;4.83;4.43;;;9.30;99.90;;;;;;5015558;28;20213;-86
2022/04/27 00:26:56;;;;;;;4.60;4.20;;;9.20;99.90;;;;;;5015480;28;20216;-86
2022/04/27 00:29:22;;;;;;;4.57;4.10;;;9.20;99.90;;;;;;5017878;28;20632;-86
2022/04/27 00:31:48;;;;;;;4.43;4.03;;;9.20;99.90;;;;;;5018513;28;20174;-86
2022/04/27 00:34:14;;;;;;;5.13;4.63;;;9.20;99.90;;;;;;5019069;28;20197;-85
2022/04/27 00:36:40;;;;;;;4.87;4.37;;;9.30;99.90;;;;;;5018443;28;20209;-86
2022/04/27 00:39:21;;;;;;;4.80;4.33;;;9.30;99.90;;;;;;5018780;28;20199;-85
2022/04/27 00:41:59;;;;;;;5.13;4.60;;;9.20;99.90;;;;;;5018896;28;20253;-86
2022/04/27 00:44:30;;;;;;;5.47;4.90;;;9.20;99.90;;;;;;5035050;28;20217;-86
2022/04/27 00:46:56;;;;;;;5.30;4.80;;;9.20;99.90;;;;;;5018601;28;20204;-86
2022/04/27 00:49:22;;;;;;;5.50;5.00;;;9.30;99.90;;;;;;5035297;28;20181;-85
2022/04/27 00:51:49;;;;;;;5.73;5.03;;;9.30;99.90;;;;;;5018501;28;20185;-86
2022/04/27 00:54:16;;;;;;;6.37;4.87;;;9.30;99.90;;;;;;5018727;28;20201;-85
2022/04/27 00:56:43;;;;;;;7.67;5.50;;;9.30;99.90;;;;;;5018569;28;20178;-85
2022/04/27 00:59:09;;;;;;;5.30;4.80;;;9.30;99.90;;;;;;5018262;28;20170;-86
2022/04/27 01:01:35;;;;;;;5.13;4.63;;;9.40;99.90;;;;;;4999156;28;20179;-86
2022/04/27 01:04:21;;;;;;;6.90;5.47;;;9.30;99.90;;;;;;4998764;28;20202;-86
2022/04/27 01:06:48;;;;;;;6.00;5.40;;;9.40;99.90;;;;;;4999058;28;20190;-86
2022/04/27 01:09:14;;;;;;;6.70;6.00;;;9.40;99.90;;;;;;4997936;28;20171;-85
2022/04/27 01:11:40;;;;;;;6.90;6.13;;;9.40;99.90;;;;;;4998888;28;20531;-86
2022/04/27 01:14:06;;;;;;;6.63;5.87;;;9.40;99.90;;;;;;4998465;28;20228;-85
2022/04/27 01:16:32;;;;;;;7.30;5.97;;;9.30;99.90;;;;;;4998733;28;20178;-85
2022/04/27 01:18:58;;;;;;;6.60;5.67;;;9.30;99.90;;;;;;4998771;28;20241;-86
2022/04/27 01:21:26;;;;;;;6.13;5.50;;;9.30;99.90;;;;;;4997547;28;20182;-85
2022/04/27 01:24:04;;;;;;;7.80;5.43;;;9.30;99.90;;;;;;5000120;28;20199;-85
2022/04/27 01:26:29;;;;;;;8.03;5.73;;;9.30;99.90;;;;;;4998433;28;20206;-85
2022/04/27 01:28:55;;;;;;;8.90;6.43;;;9.30;99.90;;;;;;4998327;28;20175;-85
2022/04/27 01:31:21;;;;;;;6.97;6.27;;;9.30;99.90;;;;;;5015106;28;20265;-85
2022/04/27 01:33:47;;;;;;;7.37;6.30;;;9.20;99.90;;;;;;4998515;28;20205;-85
2022/04/27 01:36:13;;;;;;;7.50;5.93;;;9.20;99.90;;;;;;5014956;28;20183;-86
2022/04/27 01:38:40;;;;;;;6.83;6.07;;;9.20;99.90;;;;;;4998744;28;20194;-86
2022/04/27 01:41:07;;;;;;;6.70;6.00;;;9.20;99.90;;;;;;4998314;28;20186;-85
2022/04/27 01:43:34;;;;;;;7.20;6.50;;;9.20;99.90;;;;;;4998237;28;20240;-85
2022/04/27 01:46:01;;;;;;;8.00;6.80;;;9.20;99.90;;;;;;5001516;28;20207;-86
2022/04/27 01:48:27;;;;;;;7.30;6.47;;;9.10;99.90;;;;;;5001974;28;20179;-85
2022/04/27 01:54:41;;;;;;;7.50;6.70;;;9.10;99.90;;;;;;5035929;28;20253;-85
2022/04/27 01:57:07;;;;;;;8.53;7.40;;;9.20;99.90;;;;;;5001838;28;20205;-85
2022/04/27 01:59:34;;;;;;;8.93;7.03;;;9.20;99.90;;;;;;5006087;28;20272;-85
2022/04/27 02:02:01;;;;;;;8.97;7.37;;;9.10;99.90;;;;;;5021762;28;20173;-85
2022/04/27 02:04:28;;;;;;;8.97;7.67;;;9.10;99.90;;;;;;5021280;28;20246;-85
2022/04/27 02:06:54;;;;;;;9.30;7.77;;;9.10;99.90;;;;;;5021763;28;20177;-86
2022/04/27 02:09:28;;;;;;;8.40;7.50;;;9.10;99.90;;;;;;5021197;28;20174;-85
2022/04/27 02:11:54;;;;;;;9.33;7.20;;;9.00;99.90;;;;;;5021314;28;20208;-86
2022/04/27 02:14:22;;;;;;;10.40;7.97;;;9.00;99.90;;;;;;5021132;28;20198;-85
2022/04/27 02:16:50;;;;;;;8.70;7.77;;;9.00;99.90;;;;;;5021484;28;20204;-85
2022/04/27 02:19:17;;;;;;;9.20;8.17;;;9.00;99.90;;;;;;5037350;28;20664;-85
2022/04/27 02:21:45;;;;;;;8.60;7.23;;;8.90;99.90;;;;;;5037607;28;20178;-86
2022/04/27 02:24:12;;;;;;;9.07;7.57;;;8.90;99.90;;;;;;5021047;28;20194;-85
2022/04/27 02:26:40;;;;;;;10.40;7.93;;;8.90;99.90;;;;;;5021393;28;20170;-85
2022/04/27 02:29:08;;;;;;;8.30;7.23;;;8.90;99.90;;;;;;5020900;28;20227;-85
2022/04/27 02:31:34;;;;;;;8.40;7.00;;;8.90;99.90;;;;;;5020813;28;20178;-85
2022/04/27 02:34:02;;;;;;;8.33;7.00;;;8.80;99.90;;;;;;5021159;28;20209;-85
2022/04/27 02:36:28;;;;;;;9.13;7.57;;;8.80;99.90;;;;;;5021240;28;20268;-85
2022/04/27 02:38:54;;;;;;;10.20;7.40;;;8.70;99.90;;;;;;5020577;28;20264;-85
2022/04/27 02:41:20;;;;;;;9.30;7.27;;;8.60;99.90;;;;;;5020809;28;20642;-85
2022/04/27 02:43:46;;;;;;;7.17;6.47;;;8.60;99.90;;;;;;5020952;28;20225;-85
2022/04/27 02:46:16;;;;;;;7.57;6.60;;;8.50;99.90;;;;;;5021431;28;20662;-86
2022/04/27 02:51:48;;;;;;;7.67;6.77;;;8.40;99.90;;;;;;5020536;28;20206;-86
2022/04/27 02:51:49;;;;;;;8.33;6.77;;;8.40;99.90;;;;;;5036958;28;20258;-85
2022/04/27 02:54:20;;;;;;;7.50;6.30;;;8.40;99.90;;;;;;5020822;28;20280;-86
2022/04/27 02:56:48;;;;;;;8.67;6.97;;;8.40;99.90;;;;;;5020603;28;20178;-86
2022/04/27 02:59:15;;;;;;;8.70;7.10;;;8.40;99.90;;;;;;5020447;28;20174;-86
2022/04/27 03:01:45;;;;;;;8.87;7.50;;;8.30;99.90;;;;;;5020991;28;20178;-86
2022/04/27 03:04:11;;;;;;;10.17;8.10;;;8.30;99.90;;;;;;5036507;28;20198;-86
2022/04/27 03:06:38;;;;;;;8.63;7.70;;;8.20;99.90;;;;;;5020371;28;20180;-85
2022/04/27 03:09:04;;;;;;;9.47;7.90;;;8.20;99.90;;;;;;5020488;28;20268;-85
2022/04/27 03:11:30;;;;;;;9.57;8.10;;;8.30;99.90;;;;;;5020337;28;20178;-86
2022/04/27 03:14:14;;;;;;;9.87;8.00;;;8.40;99.90;;;;;;5022327;28;20284;-85
2022/04/27 03:16:40;;;;;;;10.17;8.37;;;8.40;99.90;;;;;;5019997;28;20193;-86
2022/04/27 03:19:06;;;;;;;8.27;7.23;;;8.40;99.90;;;;;;5019928;28;20178;-86
2022/04/27 03:21:32;;;;;;;9.93;8.03;;;8.50;99.90;;;;;;5020432;28;20177;-85
2022/04/27 03:23:59;;;;;;;9.07;8.07;;;8.50;99.90;;;;;;5019781;28;20198;-86
2022/04/27 03:26:25;;;;;;;10.53;8.00;;;8.50;99.90;;;;;;5019786;28;20248;-86
2022/04/27 03:28:51;;;;;;;9.30;8.27;;;8.50;99.90;;;;;;5019763;28;20174;-86
2022/04/27 03:31:17;;;;;;;8.83;7.23;;;8.50;99.90;;;;;;5018483;28;20194;-86
2022/04/27 03:33:46;;;;;;;10.00;8.43;;;8.50;99.90;;;;;;5000369;28;20182;-85
2022/04/27 03:36:12;;;;;;;9.83;8.00;;;8.60;99.90;;;;;;4999862;28;20729;-86
2022/04/27 03:38:39;;;;;;;10.23;8.73;;;8.50;99.90;;;;;;5000064;28;20243;-85
2022/04/27 03:41:05;;;;;;;9.90;8.40;;;8.60;99.90;;;;;;4998601;28;20178;-85
2022/04/27 03:43:34;;;;;;;10.00;8.33;;;8.50;99.90;;;;;;4998649;28;20175;-85
2022/04/27 03:46:00;;;;;;;13.23;9.33;;;8.60;99.90;;;;;;5015155;28;20213;-85
2022/04/27 03:48:26;;;;;;;9.47;7.80;;;8.50;99.90;;;;;;4999028;28;20174;-85
2022/04/27 03:50:52;;;;;;;9.50;8.33;;;8.50;99.90;;;;;;4998569;28;20287;-85
2022/04/27 03:53:18;;;;;;;10.33;8.60;;;8.50;99.90;;;;;;4999811;28;20182;-85
2022/04/27 03:55:45;;;;;;;11.07;8.40;;;8.50;99.90;;;;;;4998818;28;20276;-85
2022/04/27 03:58:11;;;;;;;10.57;9.30;;;8.60;99.90;;;;;;4999260;28;20185;-85
2022/04/27 04:00:38;;;;;;;10.77;8.93;;;8.60;99.90;;;;;;5010430;28;20201;-86
2022/04/27 04:03:23;;;;;;;9.90;8.47;;;8.60;99.90;;;;;;5019515;28;20718;-86
2022/04/27 04:05:50;;;;;;;11.03;9.03;;;8.60;99.90;;;;;;5017813;28;20209;-85
2022/04/27 04:08:17;;;;;;;10.53;8.10;;;8.60;99.90;;;;;;5017271;28;20185;-85
2022/04/27 04:10:45;;;;;;;11.73;9.00;;;8.50;99.90;;;;;;5017291;28;20251;-85
2022/04/27 04:13:12;;;;;;;11.77;9.03;;;8.50;99.90;;;;;;5017622;28;20253;-85
2022/04/27 04:16:05;;;;;;;9.67;8.00;;;8.50;99.90;;;;;;5036969;28;20205;-85
2022/04/27 04:18:52;;;;;;;9.40;7.97;;;8.50;99.90;;;;;;5037747;28;20182;-85
2022/04/27 04:21:26;;;;;;;10.80;9.13;;;8.50;99.90;;;;;;5020227;28;20256;-85
2022/04/27 04:24:05;;;;;;;11.33;9.10;;;8.50;99.90;;;;;;5020630;28;20201;-85
2022/04/27 04:29:20;;;;;;;10.90;8.63;;;8.60;99.90;;;;;;5033024;28;20176;-85
2022/04/27 04:31:47;;;;;;;11.07;9.13;;;8.60;99.90;;;;;;4999332;28;20183;-85
2022/04/27 04:34:26;;;;;;;11.87;8.80;;;8.70;99.90;;;;;;5001029;28;20198;-85
2022/04/27 04:36:53;;;;;;;10.23;8.70;;;8.70;99.90;;;;;;4999145;28;20240;-85
2022/04/27 04:39:19;;;;;;;12.73;9.10;;;8.70;99.90;;;;;;4999105;28;20178;-85
2022/04/27 04:41:46;;;;;;;10.53;8.77;;;8.70;99.90;;;;;;4999088;28;20224;-85
2022/04/27 04:44:14;;;;;;;11.03;8.90;;;8.70;99.90;;;;;;4999399;28;20205;-85
2022/04/27 04:47:07;;;;;;;11.33;8.97;;;8.70;99.90;;;;;;5001528;28;20209;-85
2022/04/27 04:49:53;;;;;;;11.93;9.77;;;8.80;99.90;;;;;;5018362;28;20194;-85
2022/04/27 04:52:57;;;;;;;10.73;9.07;;;8.80;99.90;;;;;;4942602;29;20181;-85
2022/04/27 04:55:41;;;;;;;9.63;7.90;;;8.70;99.90;;;;;;4976304;28;20589;-85
2022/04/27 04:58:33;;;;;;;10.77;8.80;;;8.70;99.90;;;;;;4984956;28;20178;-85
2022/04/27 05:01:39;;;;;;;12.53;9.00;;;8.70;99.90;;;;;;5020438;28;20674;-85
2022/04/27 05:04:24;;;;;;;10.37;8.40;;;8.70;99.90;;;;;;5037756;28;20207;-85
2022/04/27 05:07:06;;;;;;;9.17;8.13;;;8.70;99.90;;;;;;5020708;28;20198;-85
2022/04/27 05:10:05;;;;;;;10.53;8.93;;;8.70;99.90;;;;;;4996198;28;20174;-85
2022/04/27 05:12:49;;;;;;;10.20;8.37;;;8.70;99.90;;;;;;5037878;28;20189;-85
2022/04/27 05:15:24;;;;;;;10.87;9.03;;;8.70;99.90;;;;;;5036071;28;20229;-85
2022/04/27 05:18:13;;;;;;;11.73;9.53;;;8.70;99.90;;;;;;5027126;28;20186;-85
2022/04/27 05:20:45;;;;;;;11.17;8.30;;;8.80;99.90;;;;;;5038082;28;20201;-85
2022/04/27 05:23:13;;;;;;;11.83;9.17;;;8.80;99.90;;;;;;5038437;28;20186;-85
2022/04/27 05:25:51;;;;;;;11.33;9.63;;;8.80;99.90;;;;;;5056945;28;20311;-85
2022/04/27 05:31:55;;;;;;;13.17;9.73;;;8.80;99.90;;;;;;5036693;28;20174;-85
2022/04/27 05:34:44;;;;;;;13.17;10.63;;;8.80;99.90;;;;;;5029846;28;20683;-85
2022/04/27 05:37:34;;;;;;;14.13;9.40;;;8.80;99.90;;;;;;5017945;28;20293;-86
2022/04/27 05:40:19;;;;;;;11.93;9.80;;;8.80;99.90;;;;;;5035208;28;20189;-87
2022/04/27 05:43:16;;;;;;;11.17;9.23;;;8.80;99.90;;;;;;5032453;28;20182;-87
2022/04/27 05:46:08;;;;;;;10.93;8.90;;;8.80;99.90;;;;;;5033508;28;20210;-86
2022/04/27 05:48:46;;;;;;;11.53;9.73;;;8.90;99.90;;;;;;5033456;28;20177;-87
2022/04/27 05:51:39;;;;;;;12.10;10.20;;;8.90;99.90;;;;;;5032032;28;20213;-86
2022/04/27 05:54:24;;;;;;;14.13;10.73;;;8.80;99.90;;;;;;5018278;28;20649;-86
2022/04/27 05:56:52;;;;;;;14.33;10.93;;;8.90;99.90;;;;;;5035135;28;20269;-86
2022/04/27 05:59:36;;;;;;;11.23;9.37;;;8.90;99.90;;;;;;5018076;28;20188;-86
2022/04/27 06:02:25;;;;;;;13.23;9.90;;;8.90;99.90;;;;;;5031452;28;20182;-86
2022/04/27 06:04:52;;;;;;;12.63;10.33;;;8.90;99.90;;;;;;5034210;28;20218;-86
2022/04/27 06:07:18;;;;;;;12.83;10.53;;;8.90;99.90;;;;;;5018105;28;20182;-86
2022/04/27 06:09:45;;;;;;;14.23;11.13;;;8.90;99.90;;;;;;5017763;28;20175;-85
2022/04/27 06:12:46;;;;;;;12.90;10.50;;;8.80;99.90;;;;;;5031639;28;20206;-86
2022/04/27 06:15:44;;;;;;;15.37;11.37;;;8.90;99.90;;;;;;5023651;28;20207;-87
2022/04/27 06:18:31;;;;;;;14.30;11.67;;;8.90;99.90;;;;;;5018077;28;20315;-86
2022/04/27 06:20:58;;;;;;;14.07;11.60;;;9.00;99.90;;;;;;5017397;28;20187;-86
2022/04/27 06:23:24;;;;;;;16.57;12.87;;;9.10;99.90;;;;;;5017280;28;20190;-87
2022/04/27 06:26:02;;;;;;;15.90;12.43;;;9.10;99.90;;;;;;5021440;28;20230;-86
2022/04/27 06:28:29;;;;;;;15.60;12.20;;;9.20;99.90;;;;;;5019832;28;20188;-88
2022/04/27 06:30:58;;;;;;;16.33;11.80;;;9.30;99.90;;;;;;5020727;28;20261;-85
2022/04/27 06:33:26;;;;;;;15.70;12.33;;;9.30;99.90;;;;;;5026206;28;20178;-85
2022/04/27 06:35:52;;;;;;;17.77;12.80;;;9.30;99.90;;;;;;5019477;28;20198;-86
2022/04/27 06:38:38;;;;;;;16.43;12.37;;;9.30;99.90;;;;;;5027913;28;20186;-86
2022/04/27 06:41:23;;;;;;;15.00;12.43;;;9.40;99.90;;;;;;5030285;28;20170;-86
2022/04/27 06:44:21;;;;;;;16.43;12.97;;;9.40;99.90;;;;;;5031092;28;20221;-85
2022/04/27 06:47:06;;;;;;;15.13;12.30;;;9.20;99.90;;;;;;5045173;28;20273;-85
2022/04/27 06:49:52;;;;;;;16.20;12.87;;;9.30;99.90;;;;;;5005545;28;20627;-86
2022/04/27 06:52:42;;;;;;;17.10;13.77;;;9.50;99.90;;;;;;5044343;28;20267;-86
2022/04/27 06:55:27;;;;;;;15.20;12.40;;;9.80;99.90;;;;;;5042724;28;20213;-87
2022/04/27 06:58:12;;;;;;;19.07;14.17;;;10.20;99.90;;;;;;5047120;28;20239;-88
2022/04/27 07:00:39;;;;;;;17.03;13.90;;;10.40;99.90;;;;;;5020710;28;20292;-88
2022/04/27 07:03:09;;;;;;;14.67;12.47;;;10.60;99.90;;;;;;5027989;28;20212;-88
2022/04/27 07:05:36;;;;;;;16.13;13.20;;;10.70;99.90;;;;;;5025069;28;20197;-85
2022/04/27 07:08:04;;;;;;;16.40;13.67;;;10.70;99.90;;;;;;5026233;28;20181;-85
2022/04/27 07:10:36;;;;;;;16.37;13.60;;;10.80;99.90;;;;;;5053305;28;20170;-85
2022/04/27 07:13:04;;;;;;;16.20;12.93;;;10.90;99.90;;;;;;5018850;28;20178;-85
2022/04/27 07:15:30;;;;;;;17.13;13.90;;;11.00;99.90;;;;;;5026276;28;20202;-86
2022/04/27 07:17:56;;;;;;;15.63;13.03;;;11.00;99.90;;;;;;5026471;28;20183;-85
2022/04/27 07:20:22;;;;;;;14.07;11.97;;;11.10;99.90;;;;;;5020514;28;20182;-85
2022/04/27 07:22:48;;;;;;;14.40;12.77;;;11.10;99.90;;;;;;5026913;28;20285;-86
2022/04/27 07:25:15;;;;;;;12.63;11.20;;;11.10;99.90;;;;;;5025338;28;20199;-86
2022/04/27 07:27:41;;;;;;;13.20;11.63;;;11.00;99.90;;;;;;5018694;28;20231;-84
2022/04/27 07:30:08;;;;;;;14.23;11.40;;;11.00;99.90;;;;;;5019542;28;20178;-85
2022/04/27 07:32:33;;;;;;;13.50;11.53;;;11.00;99.90;;;;;;5027611;28;20182;-86
2022/04/27 07:34:59;;;;;;;13.57;11.57;;;11.00;99.90;;;;;;5026457;28;20206;-83
2022/04/27 07:37:25;;;;;;;13.40;11.90;;;11.00;99.90;;;;;;5025836;28;20265;-85
2022/04/27 07:39:51;;;;;;;11.73;10.43;;;11.10;99.90;;;;;;5043769;28;20175;-84
2022/04/27 07:42:17;;;;;;;12.63;11.20;;;11.20;99.90;;;;;;5018386;28;20262;-84
2022/04/27 07:44:43;;;;;;;12.07;10.63;;;11.30;99.90;;;;;;5043330;28;20355;-85
2022/04/27 07:47:09;;;;;;;14.73;12.10;;;11.60;99.90;;;;;;5027217;28;20176;-84
2022/04/27 07:49:35;;;;;;;14.07;12.57;;;11.80;99.90;;;;;;5018705;28;20264;-85
2022/04/27 07:52:01;;;;;;;12.70;10.97;;;11.90;99.90;;;;;;5018534;28;20181;-86
2022/04/27 07:54:27;;;;;;;11.80;10.20;;;11.90;99.90;;;;;;5026736;28;20213;-86
2022/04/27 07:56:53;;;;;;;14.20;12.07;;;11.70;99.90;;;;;;5043435;28;20186;-85
2022/04/27 07:59:18;;;;;;;13.87;11.77;;;11.60;99.90;;;;;;5018369;28;20327;-85
2022/04/27 08:01:44;;;;;;;11.93;10.63;;;11.30;99.90;;;;;;5018336;28;20182;-85
2022/04/27 08:04:10;;;;;;;12.30;10.37;;;11.40;99.90;;;;;;5025238;28;20210;-86
2022/04/27 08:06:36;;;;;;;12.03;10.60;;;11.50;99.90;;;;;;5025838;28;20198;-85
2022/04/27 08:09:02;;;;;;;10.73;9.63;;;11.50;99.90;;;;;;5025797;28;20233;-85
2022/04/27 08:11:28;;;;;;;13.83;11.03;;;11.20;99.90;;;;;;5042397;28;20197;-86
2022/04/27 08:13:54;;;;;;;13.80;10.63;;;11.10;99.90;;;;;;5015569;28;20193;-85
2022/04/27 08:16:27;;;;;;;12.60;10.80;;;11.10;99.90;;;;;;5016679;28;20184;-85
2022/04/27 08:18:53;;;;;;;10.87;9.60;;;11.30;99.90;;;;;;5020787;28;20183;-86
2022/04/27 08:21:27;;;;;;;12.60;10.13;;;11.30;99.90;;;;;;5017275;28;20198;-86
2022/04/27 08:23:54;;;;;;;11.60;10.07;;;11.40;99.90;;;;;;5020987;28;20220;-85
2022/04/27 08:26:20;;;;;;;12.20;10.53;;;11.50;99.90;;;;;;5023734;28;20707;-86
2022/04/27 08:28:46;;;;;;;11.27;9.70;;;11.70;99.90;;;;;;5023119;28;20181;-85
2022/04/27 08:31:14;;;;;;;11.13;9.93;;;11.80;99.90;;;;;;5024922;28;20175;-85
2022/04/27 08:33:41;;;;;;;10.90;9.70;;;12.10;99.90;;;;;;5024272;28;20173;-86
2022/04/27 08:36:10;;;;;;;11.07;9.20;;;12.20;99.90;;;;;;5016853;28;20182;-86
2022/04/27 08:38:37;;;;;;;10.47;9.37;;;12.50;99.90;;;;;;5025301;28;20258;-85
2022/04/27 08:41:04;;;;;;;10.57;9.27;;;12.60;99.90;;;;;;5025551;28;20183;-87
2022/04/27 08:43:30;;;;;;;8.80;7.90;;;12.70;99.90;;;;;;5019614;28;20554;-86
2022/04/27 08:46:03;;;;;;;9.30;8.33;;;12.70;99.90;;;;;;5021561;28;20215;-86
2022/04/27 08:48:29;;;;;;;8.43;7.63;;;12.80;99.90;;;;;;5030858;28;20276;-86
2022/04/27 08:51:03;;;;;;;8.43;7.63;;;13.00;99.90;;;;;;5037830;28;20173;-87
2022/04/27 08:53:31;;;;;;;8.63;7.37;;;13.00;99.90;;;;;;5039045;28;20184;-86
2022/04/27 08:55:57;;;;;;;7.67;6.87;;;13.10;99.90;;;;;;5042438;28;20224;-86
2022/04/27 08:58:24;;;;;;;8.17;7.37;;;13.10;99.90;;;;;;5059166;28;20201;-86
2022/04/27 09:00:50;;;;;;;7.50;6.70;;;13.20;99.90;;;;;;5028016;28;20193;-86
2022/04/27 09:03:37;;;;;;;7.07;6.37;;;13.10;99.90;;;;;;5022550;28;20209;-86
2022/04/27 09:06:39;;;;;;;7.80;7.00;;;13.10;99.90;;;;;;5022325;28;20193;-87
2022/04/27 09:09:10;;;;;;;8.27;7.40;;;13.00;99.90;;;;;;5021760;28;20164;-87
2022/04/27 09:11:37;;;;;;;7.10;6.40;;;12.90;99.90;;;;;;5022253;28;20173;-86
2022/04/27 09:14:06;;;;;;;8.27;7.30;;;12.80;99.90;;;;;;5022067;28;20205;-87
2022/04/27 09:22:10;;;;;;;8.63;7.73;;;12.50;99.90;;;;;;5038157;28;20195;-86
2022/04/27 09:24:57;;;;;;;9.07;7.50;;;12.30;99.90;;;;;;5021774;28;20204;-86
2022/04/27 09:27:25;;;;;;;8.37;7.47;;;12.10;99.90;;;;;;5021753;28;20172;-86
2022/04/27 09:29:54;;;;;;;8.43;7.63;;;12.10;99.90;;;;;;5015569;28;20194;-86
2022/04/27 09:32:20;;;;;;;9.73;8.13;;;11.90;99.90;;;;;;5002327;28;20180;-86
2022/04/27 09:34:48;;;;;;;8.87;7.97;;;11.90;99.90;;;;;;5002482;28;20208;-86
2022/04/27 09:37:22;;;;;;;11.73;8.33;;;12.00;99.90;;;;;;5002093;28;20196;-86
2022/04/27 09:40:01;;;;;;;12.43;8.57;;;12.10;99.90;;;;;;5002104;28;20176;-86
2022/04/27 09:42:35;;;;;;;10.07;9.00;;;12.10;99.90;;;;;;5002289;28;20192;-86
2022/04/27 09:45:15;;;;;;;11.20;10.00;;;12.10;99.90;;;;;;5001984;28;20649;-86
2022/04/27 09:48:11;;;;;;;9.97;8.90;;;12.20;99.90;;;;;;5017962;28;20178;-87
2022/04/27 09:51:01;;;;;;;12.27;10.53;;;12.20;99.90;;;;;;5000052;28;20556;-86
2022/04/27 09:53:27;;;;;;;28.87;16.80;;;12.20;99.90;;;;;;5035221;28;20237;-86
2022/04/27 09:55:59;;;;;;;15.43;11.53;;;12.50;99.90;;;;;;5025934;28;20291;-86
2022/04/27 09:58:29;;;;;;;16.17;11.47;;;12.60;99.90;;;;;;5017846;28;20194;-86
2022/04/27 10:01:01;;;;;;;10.10;8.73;;;12.50;99.90;;;;;;5032880;28;20186;-86
2022/04/27 10:03:27;;;;;;;9.97;8.90;;;12.60;99.90;;;;;;5037355;28;20171;-86
2022/04/27 10:05:54;;;;;;;9.00;8.10;;;12.90;99.90;;;;;;5019907;28;20274;-86
2022/04/27 10:08:21;;;;;;;10.00;9.00;;;13.20;99.90;;;;;;5020827;28;20177;-86
2022/04/27 10:10:47;;;;;;;8.93;7.97;;;13.40;99.90;;;;;;5020580;28;20297;-86
2022/04/27 10:13:15;;;;;;;7.30;6.60;;;13.80;99.90;;;;;;5021032;28;20189;-86
2022/04/27 10:15:46;;;;;;;7.13;6.27;;;14.00;99.90;;;;;;5020707;28;20219;-86
2022/04/27 10:18:17;;;;;;;7.47;6.10;;;14.50;99.90;;;;;;5020615;28;20212;-87
2022/04/27 10:20:44;;;;;;;8.43;7.37;;;14.80;99.90;;;;;;5036764;28;20181;-86
2022/04/27 10:23:22;;;;;;;8.50;7.37;;;15.10;99.90;;;;;;5020854;28;20189;-86
2022/04/27 10:26:09;;;;;;;7.17;6.47;;;15.10;99.90;;;;;;5020698;28;20289;-86
2022/04/27 10:28:37;;;;;;;6.50;5.80;;;14.70;99.90;;;;;;5020453;28;20228;-86
2022/04/27 10:31:04;;;;;;;6.23;5.63;;;14.60;99.90;;;;;;5004425;28;20193;-86
2022/04/27 10:33:43;;;;;;;6.37;5.67;;;14.70;99.90;;;;;;5000627;28;20179;-75
2022/04/27 10:36:34;;;;;;;6.83;6.13;;;14.90;99.90;;;;;;5001033;28;20182;-86
2022/04/27 10:39:09;;;;;;;6.80;5.97;;;15.00;99.90;;;;;;5000416;28;20186;-86
2022/04/27 10:42:04;;;;;;;6.43;5.83;;;14.60;99.90;;;;;;5016992;28;20178;-86
2022/04/27 10:44:48;;;;;;;6.23;5.63;;;14.70;99.90;;;;;;5000387;28;20210;-86
2022/04/27 10:47:16;;;;;;;5.93;5.27;;;15.00;99.90;;;;;;5016781;28;20187;-86
2022/04/27 10:49:42;;;;;;;6.53;5.93;;;15.10;99.90;;;;;;5000204;28;20171;-86
2022/04/27 10:52:10;;;;;;;5.53;4.97;;;15.20;99.90;;;;;;5010062;28;20239;-86
2022/04/27 10:55:14;;;;;;;5.50;4.80;;;15.40;99.90;;;;;;5019599;28;20194;-86
2022/04/27 10:57:41;;;;;;;3.70;3.40;;;15.70;99.90;;;;;;5020075;28;20170;-86
2022/04/27 11:00:08;;;;;;;3.77;3.33;;;16.00;99.90;;;;;;5011522;28;20193;-87
2022/04/27 11:02:41;;;;;;;4.97;4.47;;;16.20;99.90;;;;;;5000238;28;20202;-86
2022/04/27 11:05:10;;;;;;;2.97;2.73;;;16.20;99.90;;;;;;4999984;28;20215;-87
2022/04/27 11:07:45;;;;;;;2.53;2.33;;;16.10;99.90;;;;;;5002274;28;20185;-87
2022/04/27 11:10:46;;;;;;;3.43;3.13;;;16.10;99.90;;;;;;5019220;28;20201;-86
2022/04/27 11:13:13;;;;;;;3.00;2.77;;;16.10;99.90;;;;;;5016596;28;20202;-86
2022/04/27 11:15:39;;;;;;;3.70;3.27;;;16.20;99.90;;;;;;5032942;28;20224;-87
2022/04/27 11:18:05;;;;;;;3.20;2.90;;;16.40;99.90;;;;;;5031795;28;20229;-87
2022/04/27 11:20:38;;;;;;;3.90;3.50;;;16.50;99.90;;;;;;5032455;28;20178;-87
2022/04/27 11:23:19;;;;;;;3.90;3.42;;;16.60;99.90;;;;;;5032458;28;20178;-86
2022/04/27 11:25:50;;;;;;;3.37;3.07;;;16.80;99.90;;;;;;5015921;28;20216;-86
2022/04/27 11:28:17;;;;;;;3.03;2.73;;;16.60;99.90;;;;;;4999872;28;20167;-86
2022/04/27 11:30:44;;;;;;;3.60;3.30;;;16.80;99.90;;;;;;5035538;28;20184;-86
2022/04/27 11:33:11;;;;;;;2.70;2.50;;;16.90;99.90;;;;;;5019201;28;20182;-86
2022/04/27 11:35:47;;;;;;;3.20;2.90;;;16.90;99.90;;;;;;5019224;28;20202;-86
2022/04/27 11:38:18;;;;;;;3.88;2.83;;;16.80;99.90;;;;;;5019331;28;20658;-87
2022/04/27 11:40:45;;;;;;;3.22;2.90;;;16.90;99.90;;;;;;5019317;28;20205;-88
2022/04/27 11:43:11;;;;;;;3.42;3.10;;;17.00;99.90;;;;;;5019241;28;20209;-86
2022/04/27 11:45:38;;;;;;;3.53;2.95;;;16.90;99.90;;;;;;5018868;28;20213;-86
2022/04/27 11:48:10;;;;;;;3.70;3.40;;;16.80;99.90;;;;;;5019350;28;20189;-86
2022/04/27 11:50:41;;;;;;;3.83;3.38;;;16.70;99.90;;;;;;5015350;28;20187;-86
2022/04/27 11:53:13;;;;;;;2.55;2.35;;;16.60;99.90;;;;;;5015640;28;20167;-86
2022/04/27 11:55:40;;;;;;;2.60;2.40;;;16.60;99.90;;;;;;5015788;28;20211;-86
2022/04/27 11:58:07;;;;;;;2.77;2.00;;;16.60;99.90;;;;;;5014934;28;20187;-86
2022/04/27 12:00:34;;;;;;;3.30;2.92;;;16.60;99.90;;;;;;5018305;28;20288;-86
2022/04/27 12:03:03;;;;;;;3.38;2.72;;;16.70;99.90;;;;;;5018837;28;20186;-86
2022/04/27 12:05:31;;;;;;;3.30;3.00;;;16.80;99.90;;;;;;5018600;28;20209;-86
2022/04/27 12:07:57;;;;;;;3.72;2.72;;;16.80;99.90;;;;;;5018849;28;20259;-86
2022/04/27 12:10:23;;;;;;;3.83;2.63;;;16.90;99.90;;;;;;5018682;28;20182;-86
2022/04/27 12:12:49;;;;;;;2.40;2.20;;;16.90;99.90;;;;;;5035066;28;20356;-86
2022/04/27 12:15:25;;;;;;;3.28;2.97;;;16.90;99.90;;;;;;5017883;28;20201;-86
2022/04/27 12:17:55;;;;;;;4.28;2.90;;;16.80;99.90;;;;;;5018999;28;20623;-86
2022/04/27 12:20:41;;;;;;;2.90;2.60;;;16.80;99.90;;;;;;5018435;28;20181;-86
2022/04/27 12:23:12;;;;;;;2.70;2.50;;;16.90;99.90;;;;;;5018772;28;20178;-86
2022/04/27 12:25:52;;;;;;;3.20;2.90;;;16.90;99.90;;;;;;5027558;28;20251;-87
2022/04/27 12:28:20;;;;;;;5.20;2.80;;;17.00;99.90;;;;;;5038060;28;20180;-86
2022/04/27 12:30:48;;;;;;;2.85;2.65;;;17.20;99.90;;;;;;5024305;28;20209;-86
2022/04/27 12:33:16;;;;;;;2.60;2.40;;;17.50;99.90;;;;;;5018568;28;20284;-86
2022/04/27 12:38:29;;;;;;;2.50;2.30;;;17.50;99.90;;;;;;5072698;28;20199;-86
2022/04/27 12:40:56;;;;;;;3.45;2.30;;;17.70;99.90;;;;;;5038342;28;20189;-86
2022/04/27 12:43:48;;;;;;;2.63;2.42;;;17.80;99.90;;;;;;5026589;28;20186;-86
2022/04/27 12:46:15;;;;;;;2.75;2.55;;;18.20;99.90;;;;;;4999016;28;20202;-86
2022/04/27 12:48:40;;;;;;;2.90;2.70;;;18.30;99.90;;;;;;5018885;28;20181;-86
2022/04/27 12:51:08;;;;;;;2.60;2.40;;;18.50;99.90;;;;;;5025389;28;20177;-86
2022/04/27 12:53:35;;;;;;;2.50;2.30;;;18.80;99.90;;;;;;5023166;28;20181;-86
2022/04/27 12:56:06;;;;;;;2.50;2.30;;;19.10;99.90;;;;;;5025426;28;20178;-86
2022/04/27 12:58:32;;;;;;;2.00;1.90;;;19.30;99.90;;;;;;5020948;28;20178;-86
2022/04/27 13:00:58;;;;;;;2.40;2.20;;;19.50;99.90;;;;;;5022986;28;20205;-86
2022/04/27 13:03:26;;;;;;;2.67;2.47;;;19.70;99.90;;;;;;5017673;28;20206;-86
2022/04/27 13:05:52;;;;;;;2.55;2.20;;;19.20;99.90;;;;;;5023038;28;20244;-83
2022/04/27 13:08:18;;;;;;;3.45;2.60;;;18.60;99.90;;;;;;5013108;28;20206;-81
2022/04/27 13:13:30;;;;;;;3.22;2.08;;;18.10;99.90;;;;;;5043447;28;20251;-86
2022/04/27 13:15:57;;;;;;;3.25;2.90;;;17.60;99.90;;;;;;5025064;28;20711;-86
2022/04/27 13:18:23;;;;;;;2.97;2.67;;;17.70;99.90;;;;;;5017625;28;20179;-86
2022/04/27 13:20:52;;;;;;;3.20;2.88;;;17.90;99.90;;;;;;5038295;28;20178;-86
2022/04/27 13:23:20;;;;;;;2.80;2.60;;;17.80;99.90;;;;;;5017205;28;20174;-86
2022/04/27 13:25:46;;;;;;;2.55;2.35;;;17.90;99.90;;;;;;5025480;28;20202;-86
2022/04/27 13:28:12;;;;;;;2.80;2.60;;;18.00;99.90;;;;;;5026945;28;20170;-86